Pinehurst, North Carolina
Current Conditions -  °F | °C
As of 8:55 AM on Friday 24 Oct 2014 (Local Time) from KSOP Reporting Station
Clear Clear  
Wind Chill: 48°   Ceiling: Unl
Heat Index: 48°   Visibility: 10mi
Dew Point: 39°   Wind: 3mph
Humidity: 71%   Direction: 330°NNW
Pressure: 30.07"   Gusts: NA
Location:  35.19°N, 79.47°W
Report Text: KSOP 241255Z AUTO 33003KT 10SM CLR 09/04 A3007 RMK AO1
Loading
Personal Weather Stations






























Interactive Weather Map
Tropical Storm Tracking
New forecast layout! Learn more

10-Day Weather Forecast

Advertisements
Track Severe Weather on mobile